Cedar Park's Hourly Summary for Thursday, March 16, 2017
Hour Temp
(f)
RH
(%)
Solar Rad.
(MJ/m2)
Rainfall
(in)
Wind
(mph)
3/16/2017 12:00 AM 62 69 0 0 6.74
3/16/2017 1:00 AM 60 80 0 0 8.25
3/16/2017 2:00 AM 59 85 0 0 8.33
3/16/2017 3:00 AM 58 91 0 0 5.81
3/16/2017 4:00 AM 58 97 0 0 5.64
3/16/2017 5:00 AM 57 99 0 0 4.25
3/16/2017 6:00 AM 56 100 0 0 3.29
3/16/2017 7:00 AM 56 100 0 0 2.84
3/16/2017 8:00 AM 56 100 0 0 3.8
3/16/2017 9:00 AM 57 100 0.05 0 5.3
3/16/2017 10:00 AM 57 100 0.18 0 5.91
3/16/2017 11:00 AM 59 100 0.25 0 5.35
3/16/2017 12:00 PM 61 99 0.44 0 5.29
3/16/2017 1:00 PM 64 93 0.55 0 5.87
3/16/2017 2:00 PM 67 85 0.65 0 5.95
3/16/2017 3:00 PM 70 68 1.64 0 7
3/16/2017 4:00 PM 74 59 1.63 0 6.83
3/16/2017 5:00 PM 75 57 1.44 0 8.19
3/16/2017 6:00 PM 75 58 0.58 0 8.42
3/16/2017 7:00 PM 74 59 0.24 0 7.26
3/16/2017 8:00 PM 72 62 0.04 0 7.87
3/16/2017 9:00 PM 70 67 0 0 7.82
3/16/2017 10:00 PM 69 73 0 0 10.01
3/16/2017 11:00 PM 67 76 0 0 11.28
Data Summary 63 82 7.69 0.00 6.55